Time;durP1;ratioP1;P1;durP2;ratioP2;P2;SDS_P1;SDS_P2;PMS_P1;PMS_P2;Temp;Humidity;BMP_temperature;BMP_pressure;BME280_temperature;BME280_humidity;BME280_pressure;Samples;Min_cycle;Max_cycle;Signal;HPM_P1;HPM_P2
2023/07/02 00:00:07;;;;;;;29.75;14.45;;;;;;;15.72;100.00;100386.63;5082457;28;20024;-71
2023/07/02 00:02:33;;;;;;;30.35;13.98;;;;;;;15.71;100.00;100384.16;5082169;28;20114;-71
2023/07/02 00:04:58;;;;;;;28.50;13.98;;;;;;;15.68;100.00;100387.59;5113045;28;20056;-71
2023/07/02 00:07:25;;;;;;;29.23;13.23;;;;;;;15.65;100.00;100389.88;5100609;28;20032;-71
2023/07/02 00:09:51;;;;;;;26.05;13.73;;;;;;;15.61;100.00;100393.69;5100377;28;20032;-71
2023/07/02 00:12:17;;;;;;;32.53;13.80;;;;;;;15.58;100.00;100392.38;5102168;28;20032;-71
2023/07/02 00:14:42;;;;;;;28.90;13.93;;;;;;;15.56;100.00;100396.66;5065276;28;20037;-71
2023/07/02 00:17:08;;;;;;;28.15;13.88;;;;;;;15.52;100.00;100399.31;5113794;28;20039;-71
2023/07/02 00:19:33;;;;;;;26.70;13.25;;;;;;;15.49;100.00;100393.53;5100003;28;20536;-71
2023/07/02 00:21:59;;;;;;;32.33;14.00;;;;;;;15.45;100.00;100398.16;5108346;28;20039;-71
2023/07/02 00:24:24;;;;;;;30.20;13.77;;;;;;;15.41;100.00;100401.59;5120735;28;20039;-71
2023/07/02 00:26:50;;;;;;;33.08;13.70;;;;;;;15.38;100.00;100395.84;5120258;28;20032;-71
2023/07/02 00:29:15;;;;;;;28.95;13.13;;;;;;;15.35;100.00;100402.94;5120094;28;20038;-71
2023/07/02 00:31:41;;;;;;;27.30;13.40;;;;;;;15.33;100.00;100394.03;5120173;28;20027;-71
2023/07/02 00:34:06;;;;;;;28.63;13.70;;;;;;;15.30;100.00;100386.31;5120151;28;20032;-71
2023/07/02 00:36:31;;;;;;;30.42;13.13;;;;;;;15.29;100.00;100393.03;5120161;28;20039;-71
2023/07/02 00:38:58;;;;;;;29.02;13.77;;;;;;;15.23;100.00;100385.97;5120113;28;20419;-71
2023/07/02 00:41:23;;;;;;;29.45;13.48;;;;;;;15.20;100.00;100386.63;5101923;28;20102;-71
2023/07/02 00:43:49;;;;;;;28.55;12.85;;;;;;;15.18;100.00;100388.91;5120049;28;20066;-71
2023/07/02 00:46:17;;;;;;;34.05;14.65;;;;;;;15.18;100.00;100383.31;5120104;28;20028;-71
2023/07/02 00:48:46;;;;;;;31.02;14.73;;;;;;;15.14;100.00;100380.34;5119428;28;20042;-71
2023/07/02 00:51:20;;;;;;;29.05;13.52;;;;;;;15.11;100.00;100380.19;5097191;28;20039;-71
2023/07/02 00:53:46;;;;;;;29.02;13.75;;;;;;;15.08;100.00;100380.84;5077947;28;20031;-71
2023/07/02 00:56:12;;;;;;;32.58;14.15;;;;;;;15.05;100.00;100385.13;5081300;28;20115;-71
2023/07/02 00:58:48;;;;;;;26.15;12.35;;;;;;;15.04;100.00;100382.66;5092213;28;20027;-71
2023/07/02 01:01:20;;;;;;;28.15;13.20;;;;;;;15.02;100.00;100374.59;5083303;28;20027;-71
2023/07/02 01:03:54;;;;;;;30.53;13.40;;;;;;;15.02;100.00;100385.78;5108706;28;20032;-71
2023/07/02 01:06:31;;;;;;;34.10;12.98;;;;;;;15.00;100.00;100378.88;5109644;28;20281;-71
2023/07/02 01:09:07;;;;;;;30.88;13.50;;;;;;;14.99;100.00;100378.06;5098550;28;20028;-71
2023/07/02 01:11:47;;;;;;;26.40;12.77;;;;;;;15.01;100.00;100380.50;5099178;28;20020;-71
2023/07/02 01:14:15;;;;;;;30.55;13.23;;;;;;;14.93;100.00;100376.53;5099201;28;20430;-71
2023/07/02 01:16:43;;;;;;;29.02;13.00;;;;;;;14.92;100.00;100386.09;5106472;28;20032;-71
2023/07/02 01:19:11;;;;;;;27.77;12.43;;;;;;;14.87;100.00;100386.25;5064234;28;20024;-71
2023/07/02 01:21:37;;;;;;;31.00;13.95;;;;;;;14.83;100.00;100386.09;5065305;28;20032;-71
2023/07/02 01:24:03;;;;;;;27.92;12.95;;;;;;;14.83;100.00;100382.47;5112200;28;20078;-71
2023/07/02 01:26:31;;;;;;;29.65;13.02;;;;;;;14.81;100.00;100391.16;5098942;28;20079;-71
2023/07/02 01:28:56;;;;;;;29.95;13.15;;;;;;;14.82;100.00;100380.81;5080707;28;20055;-71
2023/07/02 01:31:24;;;;;;;30.05;12.93;;;;;;;14.77;100.00;100379.00;5098733;28;20435;-71
2023/07/02 01:33:50;;;;;;;31.85;13.57;;;;;;;14.77;100.00;100378.19;5098537;28;20387;-71
2023/07/02 01:36:16;;;;;;;30.98;13.43;;;;;;;14.75;100.00;100378.50;5098656;28;20040;-71
2023/07/02 01:38:41;;;;;;;30.92;13.10;;;;;;;14.76;100.00;100385.72;5098595;28;20089;-71
2023/07/02 01:41:07;;;;;;;30.52;12.95;;;;;;;14.73;100.00;100378.00;5098603;28;20027;-71
2023/07/02 01:43:32;;;;;;;27.48;12.93;;;;;;;14.72;100.00;100384.75;5114347;28;20028;-71
2023/07/02 01:45:59;;;;;;;25.80;12.23;;;;;;;14.70;100.00;100387.84;5103784;28;20024;-71
2023/07/02 01:48:24;;;;;;;27.98;12.90;;;;;;;14.68;100.00;100383.72;5098037;28;20048;-71
2023/07/02 01:50:50;;;;;;;24.48;12.70;;;;;;;14.65;100.00;100385.19;5098294;28;20039;-71
2023/07/02 01:53:15;;;;;;;25.48;12.35;;;;;;;14.64;100.00;100391.13;5098433;28;20543;-71
2023/07/02 01:55:41;;;;;;;27.00;12.68;;;;;;;14.62;100.00;100396.22;5098375;28;20028;-71
2023/07/02 01:58:07;;;;;;;26.98;13.00;;;;;;;14.62;100.00;100390.63;5111866;28;20055;-71
2023/07/02 02:00:32;;;;;;;29.27;12.95;;;;;;;14.58;100.00;100398.03;5098360;28;20028;-71
2023/07/02 02:02:58;;;;;;;27.20;12.15;;;;;;;14.57;100.00;100391.63;5082745;28;20036;-71
2023/07/02 02:05:23;;;;;;;25.13;12.48;;;;;;;14.54;100.00;100392.22;5108028;28;20122;-71
2023/07/02 02:07:49;;;;;;;27.92;12.63;;;;;;;14.54;100.00;100403.41;5111798;28;20412;-71
2023/07/02 02:10:14;;;;;;;25.27;12.35;;;;;;;14.53;100.00;100396.19;5098076;28;20420;-71
2023/07/02 02:12:40;;;;;;;25.40;12.52;;;;;;;14.53;100.00;100385.00;5103127;28;20035;-71
2023/07/02 02:15:06;;;;;;;28.58;12.25;;;;;;;14.49;100.00;100379.22;5118336;28;20024;-71
2023/07/02 02:17:32;;;;;;;27.17;13.25;;;;;;;14.47;100.00;100381.50;5097675;28;20023;-71
2023/07/02 02:19:57;;;;;;;24.80;12.38;;;;;;;14.48;100.00;100388.72;5098835;28;20028;-71
2023/07/02 02:22:23;;;;;;;26.77;13.18;;;;;;;14.44;100.00;100387.75;5108647;28;20031;-71
2023/07/02 02:24:48;;;;;;;26.95;12.25;;;;;;;14.39;100.00;100387.88;5093160;28;20148;-71
2023/07/02 02:27:14;;;;;;;26.20;12.27;;;;;;;14.39;100.00;100395.44;5097822;28;20392;-71
2023/07/02 02:29:39;;;;;;;28.33;12.88;;;;;;;14.35;100.00;100395.28;5079427;28;20028;-71
2023/07/02 02:32:05;;;;;;;27.05;12.25;;;;;;;14.36;100.00;100396.91;5097999;28;20032;-71
2023/07/02 02:34:30;;;;;;;27.15;11.88;;;;;;;14.34;100.00;100396.41;5079448;28;20130;-71
2023/07/02 02:36:56;;;;;;;28.45;12.68;;;;;;;14.33;100.00;100397.56;5063282;28;20032;-71
2023/07/02 02:39:22;;;;;;;28.33;13.13;;;;;;;14.31;100.00;100397.06;5079604;28;20102;-71
2023/07/02 02:41:47;;;;;;;23.95;11.40;;;;;;;14.29;100.00;100400.19;5099027;28;20035;-71
2023/07/02 02:44:13;;;;;;;28.15;11.88;;;;;;;14.26;100.00;100399.97;5116755;28;20073;-71
2023/07/02 02:46:38;;;;;;;23.52;12.07;;;;;;;14.26;100.00;100402.78;5097616;28;20032;-71
2023/07/02 02:49:04;;;;;;;23.60;12.32;;;;;;;14.23;100.00;100404.22;5097181;28;20048;-71
2023/07/02 02:51:29;;;;;;;23.40;11.35;;;;;;;14.21;100.00;100400.16;5097583;28;20036;-71
2023/07/02 02:53:55;;;;;;;22.85;11.85;;;;;;;14.20;100.00;100404.06;5097529;28;20024;-71
2023/07/02 02:56:20;;;;;;;27.60;12.40;;;;;;;14.17;100.00;100397.16;5084589;28;20036;-71
2023/07/02 02:58:46;;;;;;;24.40;11.77;;;;;;;14.16;100.00;100403.06;5105995;28;20032;-71
2023/07/02 03:01:11;;;;;;;26.30;12.40;;;;;;;14.12;100.00;100391.69;5097411;28;20404;-71
2023/07/02 03:03:44;;;;;;;24.15;12.10;;;;;;;14.12;100.00;100388.91;5105568;28;20032;-71
2023/07/02 03:06:10;;;;;;;23.02;12.30;;;;;;;14.10;100.00;100394.00;5083242;28;20035;-71
2023/07/02 03:08:35;;;;;;;24.20;11.93;;;;;;;14.08;100.00;100401.88;5097342;28;20036;-71
2023/07/02 03:11:01;;;;;;;26.20;11.65;;;;;;;14.07;100.00;100411.41;5079241;28;20032;-71
2023/07/02 03:13:26;;;;;;;27.45;12.15;;;;;;;14.06;100.00;100398.56;5109002;28;20032;-71
2023/07/02 03:15:51;;;;;;;25.75;11.88;;;;;;;14.03;100.00;100394.44;5111069;28;20121;-71
2023/07/02 03:18:17;;;;;;;24.67;11.82;;;;;;;14.00;100.00;100400.69;5096986;28;20028;-71
2023/07/02 03:20:43;;;;;;;24.42;11.43;;;;;;;14.00;100.00;100402.66;5104277;28;20027;-71
2023/07/02 03:23:08;;;;;;;24.65;12.13;;;;;;;13.98;100.00;100404.94;5104605;28;20031;-71
2023/07/02 03:25:33;;;;;;;24.23;12.07;;;;;;;13.95;100.00;100403.59;5097197;28;20028;-71
2023/07/02 03:27:59;;;;;;;25.92;11.25;;;;;;;13.98;100.00;100397.38;5097092;28;20503;-71
2023/07/02 03:30:24;;;;;;;27.58;12.25;;;;;;;13.94;100.00;100393.59;5079421;28;20032;-71
2023/07/02 03:32:50;;;;;;;23.70;10.80;;;;;;;13.93;100.00;100405.06;5100862;28;20384;-71
2023/07/02 03:35:15;;;;;;;27.95;12.05;;;;;;;13.90;100.00;100412.13;5101275;28;20028;-71
2023/07/02 03:37:43;;;;;;;23.13;11.40;;;;;;;13.89;100.00;100415.22;5101040;28;20036;-71
2023/07/02 03:40:09;;;;;;;28.05;11.75;;;;;;;13.88;100.00;100406.03;5100865;28;20125;-71
2023/07/02 03:42:34;;;;;;;28.42;12.25;;;;;;;13.87;100.00;100401.56;5090549;28;20164;-71
2023/07/02 03:45:00;;;;;;;23.48;11.40;;;;;;;13.85;100.00;100409.47;5114848;28;20032;-71
2023/07/02 03:47:25;;;;;;;24.25;11.80;;;;;;;13.85;100.00;100415.03;5100502;28;20495;-71
2023/07/02 03:49:51;;;;;;;22.98;11.27;;;;;;;13.84;100.00;100421.75;5100520;28;20044;-71
2023/07/02 03:52:16;;;;;;;24.48;12.10;;;;;;;13.83;100.00;100420.94;5075953;28;20024;-71
2023/07/02 03:54:42;;;;;;;24.80;11.52;;;;;;;13.81;100.00;100416.81;5084323;28;20028;-71
2023/07/02 03:57:07;;;;;;;22.10;12.02;;;;;;;13.81;100.00;100411.22;5091135;28;20074;-71
2023/07/02 03:59:34;;;;;;;24.75;11.85;;;;;;;13.81;100.00;100408.44;5100321;28;20481;-71
2023/07/02 04:01:59;;;;;;;21.77;11.45;;;;;;;13.81;100.00;100416.81;5100595;28;20032;-71
2023/07/02 04:04:25;;;;;;;28.67;12.23;;;;;;;13.78;100.00;100415.47;5112748;28;20061;-71
2023/07/02 04:06:50;;;;;;;26.10;12.02;;;;;;;13.77;100.00;100421.41;5100489;28;20031;-71
2023/07/02 04:09:15;;;;;;;27.42;11.68;;;;;;;13.78;100.00;100421.06;5100256;28;20036;-71
2023/07/02 04:11:41;;;;;;;22.92;10.52;;;;;;;13.76;100.00;100411.34;5082208;28;20035;-71
2023/07/02 04:14:06;;;;;;;25.58;12.32;;;;;;;13.77;100.00;100407.44;5117510;28;20031;-71
2023/07/02 04:16:32;;;;;;;24.20;11.52;;;;;;;13.74;100.00;100416.44;5108066;28;20032;-71
2023/07/02 04:18:57;;;;;;;23.83;11.73;;;;;;;13.72;100.00;100425.13;5099852;28;20020;-71
2023/07/02 04:21:23;;;;;;;26.77;11.80;;;;;;;13.74;100.00;100414.47;5113368;28;20032;-71
2023/07/02 04:23:48;;;;;;;26.02;11.57;;;;;;;13.72;100.00;100421.50;5109611;28;20096;-71
2023/07/02 04:26:14;;;;;;;22.63;11.95;;;;;;;13.72;100.00;100421.50;5108153;28;20035;-71
2023/07/02 04:28:39;;;;;;;24.92;11.40;;;;;;;13.72;100.00;100429.88;5099669;28;20032;-71
2023/07/02 04:31:05;;;;;;;24.35;11.70;;;;;;;13.71;100.00;100422.66;5100055;28;20356;-71
2023/07/02 04:33:35;;;;;;;23.23;12.55;;;;;;;13.71;100.00;100425.47;5099516;28;20028;-71
2023/07/02 04:36:04;;;;;;;23.88;11.48;;;;;;;13.68;100.00;100434.44;5099927;28;20042;-71
2023/07/02 04:38:29;;;;;;;25.10;11.77;;;;;;;13.67;100.00;100441.16;5085288;28;20377;-71
2023/07/02 04:40:57;;;;;;;22.98;11.95;;;;;;;13.66;100.00;100433.94;5095307;28;20027;-71
2023/07/02 04:43:23;;;;;;;23.50;11.10;;;;;;;13.67;100.00;100441.16;5114162;28;20027;-71
2023/07/02 04:45:49;;;;;;;22.35;11.38;;;;;;;13.68;100.00;100435.28;5105924;28;20035;-71
2023/07/02 04:48:14;;;;;;;28.45;12.18;;;;;;;13.68;100.00;100438.06;5099248;28;20036;-71
2023/07/02 04:50:41;;;;;;;26.58;11.70;;;;;;;13.70;100.00;100440.53;5099566;28;20094;-71
2023/07/02 04:53:07;;;;;;;28.17;11.93;;;;;;;13.71;100.00;100437.44;5099505;28;20059;-71
2023/07/02 04:55:32;;;;;;;23.50;11.30;;;;;;;13.75;100.00;100444.03;5099509;28;20492;-71
2023/07/02 04:57:58;;;;;;;25.45;12.00;;;;;;;13.77;100.00;100430.59;5112962;28;20028;-71
2023/07/02 05:00:23;;;;;;;20.95;11.25;;;;;;;13.85;100.00;100437.38;5081338;28;20025;-71
2023/07/02 05:02:49;;;;;;;21.70;11.52;;;;;;;13.86;100.00;100437.03;5082606;28;20028;-71
2023/07/02 05:05:14;;;;;;;27.50;11.55;;;;;;;13.92;100.00;100434.94;5110028;28;20028;-71
2023/07/02 05:07:40;;;;;;;24.23;12.02;;;;;;;13.97;100.00;100451.56;5099214;28;20060;-71
2023/07/02 05:10:06;;;;;;;23.88;11.80;;;;;;;14.04;100.00;100443.59;5099177;28;20031;-71
2023/07/02 05:12:32;;;;;;;26.48;12.85;;;;;;;14.13;100.00;100443.63;5103037;28;20039;-71
2023/07/02 05:14:57;;;;;;;21.75;11.43;;;;;;;14.22;100.00;100452.06;5119516;28;20051;-71
2023/07/02 05:17:23;;;;;;;21.35;11.48;;;;;;;14.28;100.00;100450.78;5081400;28;20481;-71
2023/07/02 05:19:48;;;;;;;23.83;12.35;;;;;;;14.37;100.00;100451.63;5099799;28;20020;-71
2023/07/02 05:22:14;;;;;;;25.45;12.45;;;;;;;14.46;100.00;100446.94;5112715;28;20028;-71
2023/07/02 05:24:40;;;;;;;28.67;12.35;;;;;;;14.53;100.00;100447.31;5099039;28;20028;-71
2023/07/02 05:27:06;;;;;;;26.75;12.25;;;;;;;14.63;100.00;100451.78;5098783;28;20031;-71
2023/07/02 05:29:31;;;;;;;26.67;11.93;;;;;;;14.71;100.00;100451.00;5098628;28;20024;-71
2023/07/02 05:31:57;;;;;;;27.90;12.48;;;;;;;14.79;100.00;100456.94;5098742;28;20028;-71
2023/07/02 05:34:22;;;;;;;29.92;13.27;;;;;;;14.86;100.00;100463.72;5098574;28;20039;-71
2023/07/02 05:36:48;;;;;;;25.75;12.25;;;;;;;14.95;100.00;100463.72;5098745;28;20032;-71
2023/07/02 05:39:13;;;;;;;27.60;12.63;;;;;;;15.01;100.00;100462.44;5098671;28;20028;-71
2023/07/02 05:41:39;;;;;;;25.33;12.60;;;;;;;15.07;100.00;100461.16;5098528;28;20507;-71
2023/07/02 05:44:04;;;;;;;25.05;12.05;;;;;;;15.14;100.00;100472.66;5111032;28;20031;-71
2023/07/02 05:46:30;;;;;;;30.23;13.02;;;;;;;15.20;100.00;100467.75;5081603;28;20032;-71
2023/07/02 05:48:56;;;;;;;27.27;12.07;;;;;;;15.29;100.00;100471.38;5080011;28;20044;-71
2023/07/02 05:51:22;;;;;;;29.90;13.45;;;;;;;15.40;100.00;100464.31;5098327;28;20032;-70
2023/07/02 05:53:48;;;;;;;28.48;13.32;;;;;;;15.50;100.00;100463.19;5097836;28;20028;-71
2023/07/02 05:56:14;;;;;;;25.58;13.15;;;;;;;15.61;100.00;100464.50;5102591;28;20093;-71
2023/07/02 05:58:39;;;;;;;29.50;13.20;;;;;;;15.75;100.00;100457.94;5089341;28;20020;-71
2023/07/02 06:01:05;;;;;;;27.85;11.93;;;;;;;15.88;100.00;100465.34;5080158;28;20401;-71
2023/07/02 06:03:31;;;;;;;27.77;12.80;;;;;;;16.04;100.00;100455.25;5105566;28;20028;-72
2023/07/02 06:05:56;;;;;;;23.95;12.05;;;;;;;16.18;100.00;100463.47;5084812;28;20042;-72
2023/07/02 06:08:22;;;;;;;25.13;12.52;;;;;;;16.36;100.00;100469.06;5098213;28;20024;-71
2023/07/02 06:10:48;;;;;;;28.10;12.43;;;;;;;16.51;100.00;100465.69;5098011;28;20036;-71
2023/07/02 06:13:13;;;;;;;23.38;12.55;;;;;;;16.69;100.00;100470.09;5107851;28;20093;-71
2023/07/02 06:15:39;;;;;;;28.85;12.27;;;;;;;16.88;100.00;100466.06;5113679;28;20028;-71
2023/07/02 06:18:05;;;;;;;27.73;12.73;;;;;;;17.05;100.00;100470.75;5079627;28;20066;-71
2023/07/02 06:20:30;;;;;;;26.92;12.75;;;;;;;17.19;100.00;100477.78;5080539;28;20078;-71
2023/07/02 06:22:56;;;;;;;26.30;12.75;;;;;;;17.38;100.00;100479.28;5088048;28;20043;-71
2023/07/02 06:25:21;;;;;;;30.90;12.63;;;;;;;17.56;100.00;100474.38;5098220;28;20024;-72
2023/07/02 06:27:47;;;;;;;29.80;12.65;;;;;;;17.71;100.00;100475.75;5079666;28;20031;-72
2023/07/02 06:30:12;;;;;;;31.30;12.95;;;;;;;17.85;100.00;100485.56;5079230;28;20477;-71
2023/07/02 06:32:38;;;;;;;26.48;12.85;;;;;;;18.03;100.00;100483.44;5062899;28;20099;-71
2023/07/02 06:35:05;;;;;;;22.55;12.15;;;;;;;18.21;100.00;100484.06;5079799;28;20543;-71
2023/07/02 06:37:31;;;;;;;27.92;13.10;;;;;;;18.38;100.00;100487.88;5097769;28;20093;-71
2023/07/02 06:39:57;;;;;;;30.58;13.60;;;;;;;18.50;100.00;100482.28;5059738;28;20080;-71
2023/07/02 06:42:23;;;;;;;24.23;12.13;;;;;;;18.69;100.00;100476.09;5109669;28;20028;-71
2023/07/02 06:44:49;;;;;;;28.77;12.55;;;;;;;18.81;100.00;100476.16;5094640;28;20090;-71
2023/07/02 06:47:14;;;;;;;24.10;12.05;;;;;;;18.97;100.00;100481.88;5079599;28;20032;-71
2023/07/02 06:49:40;;;;;;;25.90;12.38;;;;;;;19.16;100.00;100484.09;5097544;28;20102;-71
2023/07/02 06:52:06;;;;;;;25.08;13.30;;;;;;;19.31;100.00;100491.03;5097753;28;20028;-71
2023/07/02 06:54:31;;;;;;;26.60;13.00;;;;;;;19.45;100.00;100485.84;5079288;28;20111;-71
2023/07/02 06:56:56;;;;;;;31.92;12.60;;;;;;;19.58;100.00;100495.88;5108016;28;20024;-72
2023/07/02 06:59:22;;;;;;;32.60;12.98;;;;;;;19.71;100.00;100499.53;5100421;28;20024;-72
2023/07/02 07:01:48;;;;;;;30.25;12.57;;;;;;;19.86;100.00;100495.16;5097535;28;20467;-72
2023/07/02 07:04:14;;;;;;;36.20;13.30;;;;;;;19.99;100.00;100496.75;5109849;28;20391;-72
2023/07/02 07:06:39;;;;;;;33.85;13.93;;;;;;;20.08;100.00;100493.78;5101576;28;20027;-72
2023/07/02 07:09:05;;;;;;;33.90;13.00;;;;;;;20.17;100.00;100497.28;5101419;28;20028;-72
2023/07/02 07:11:30;;;;;;;29.52;12.35;;;;;;;20.33;100.00;100500.13;5083692;28;20032;-71
2023/07/02 07:13:56;;;;;;;28.52;12.20;;;;;;;20.43;100.00;100504.44;5117214;28;20042;-72
2023/07/02 07:16:21;;;;;;;35.50;12.40;;;;;;;20.51;100.00;100500.63;5110932;28;20431;-72
2023/07/02 07:18:47;;;;;;;34.63;12.85;;;;;;;20.52;100.00;100496.59;5100893;28;20039;-71
2023/07/02 07:21:13;;;;;;;32.85;12.27;;;;;;;20.67;100.00;100507.13;5113206;28;20032;-71
2023/07/02 07:23:39;;;;;;;32.92;12.15;;;;;;;20.69;100.00;100507.56;5103671;28;20032;-72
2023/07/02 07:26:04;;;;;;;31.02;12.15;;;;;;;20.84;100.00;100507.94;5083120;28;20028;-67
2023/07/02 07:28:30;;;;;;;33.17;12.52;;;;;;;20.89;100.00;100507.69;5100952;28;20039;-73
2023/07/02 07:30:56;;;;;;;29.42;11.15;;;;;;;20.97;100.00;100503.84;5083067;28;20496;-73
2023/07/02 07:33:21;;;;;;;33.30;13.23;;;;;;;21.04;100.00;100504.03;5100676;28;20028;-72
2023/07/02 07:35:46;;;;;;;32.20;11.85;;;;;;;21.15;100.00;100505.13;5101133;28;20039;-72
2023/07/02 07:38:15;;;;;;;28.08;12.13;;;;;;;21.24;100.00;100509.75;5104113;28;20084;-72
2023/07/02 07:40:42;;;;;;;31.52;12.55;;;;;;;21.31;100.00;100507.09;5101132;28;20037;-73
2023/07/02 07:43:07;;;;;;;35.22;13.00;;;;;;;21.31;100.00;100499.47;5113111;28;20028;-73
2023/07/02 07:45:33;;;;;;;35.45;12.48;;;;;;;21.34;100.00;100495.91;5102239;28;20038;-72
2023/07/02 07:47:58;;;;;;;36.85;12.57;;;;;;;21.30;100.00;100503.44;5095806;28;20107;-73
2023/07/02 07:50:24;;;;;;;31.10;11.30;;;;;;;21.41;100.00;100506.56;5100528;28;20093;-73
2023/07/02 07:52:49;;;;;;;30.35;12.07;;;;;;;21.56;100.00;100504.88;5100486;28;20032;-73
2023/07/02 07:55:15;;;;;;;29.83;11.40;;;;;;;21.66;100.00;100506.31;5060921;28;20426;-73
2023/07/02 07:57:41;;;;;;;33.47;11.65;;;;;;;21.69;100.00;100508.41;5104110;28;20082;-73
2023/07/02 08:00:09;;;;;;;30.67;10.82;;;;;;;21.80;100.00;100510.28;5100637;28;20054;-73
2023/07/02 08:02:35;;;;;;;30.73;12.15;;;;;;;21.84;100.00;100507.53;5100211;28;20032;-72
2023/07/02 08:05:01;;;;;;;30.73;11.55;;;;;;;21.88;100.00;100519.75;5078000;28;20369;-73
2023/07/02 08:07:26;;;;;;;33.53;10.93;;;;;;;21.90;100.00;100520.19;5078890;28;20024;-73
2023/07/02 08:09:52;;;;;;;31.85;11.38;;;;;;;21.84;100.00;100516.00;5110864;28;20032;-72
2023/07/02 08:12:17;;;;;;;33.13;11.02;;;;;;;21.90;100.00;100514.53;5105420;28;20473;-72
2023/07/02 08:14:42;;;;;;;34.83;11.27;;;;;;;21.93;100.00;100522.28;5102340;28;20110;-73
2023/07/02 08:17:08;;;;;;;26.92;10.27;;;;;;;21.98;100.00;100513.50;5102069;28;20062;-73
2023/07/02 08:19:33;;;;;;;32.95;10.73;;;;;;;22.06;100.00;100520.09;5082293;28;20028;-73
2023/07/02 08:21:59;;;;;;;26.90;9.55;;;;;;;22.22;100.00;100517.25;5114235;28;20031;-73
2023/07/02 08:24:24;;;;;;;25.77;10.27;;;;;;;22.32;99.33;100521.50;5100058;28;20032;-73
2023/07/02 08:26:50;;;;;;;30.60;10.48;;;;;;;22.37;98.12;100518.34;5113655;28;20039;-73
2023/07/02 08:29:16;;;;;;;31.02;10.30;;;;;;;22.45;97.39;100525.78;5081692;28;20085;-72
2023/07/02 08:31:42;;;;;;;26.02;9.80;;;;;;;22.51;96.10;100524.28;5082012;28;20055;-74
2023/07/02 08:34:08;;;;;;;33.53;10.32;;;;;;;22.58;95.08;100515.94;5088393;28;20395;-73
2023/07/02 08:36:33;;;;;;;27.35;10.18;;;;;;;22.62;94.23;100530.97;5099883;28;20036;-74
2023/07/02 08:38:59;;;;;;;29.17;9.43;;;;;;;22.66;94.81;100531.03;5053719;28;20024;-75
2023/07/02 08:41:24;;;;;;;33.67;9.93;;;;;;;22.63;92.17;100526.94;5099712;28;20080;-73
2023/07/02 08:43:55;;;;;;;27.35;9.07;;;;;;;22.66;90.58;100529.03;5073782;28;20031;-74
2023/07/02 08:46:20;;;;;;;27.63;10.00;;;;;;;22.76;89.09;100521.91;5063524;28;20024;-73
2023/07/02 08:48:46;;;;;;;28.48;9.85;;;;;;;22.86;89.87;100524.13;5093186;28;20059;-73
2023/07/02 08:51:12;;;;;;;34.72;10.63;;;;;;;22.94;90.02;100525.06;5083098;28;20032;-73
2023/07/02 08:53:37;;;;;;;28.50;10.07;;;;;;;23.02;88.48;100526.03;5099527;28;20099;-74
2023/07/02 08:56:03;;;;;;;32.72;10.30;;;;;;;23.07;87.71;100528.56;5067551;28;20027;-74
2023/07/02 08:58:29;;;;;;;24.98;9.75;;;;;;;23.12;86.64;100525.38;5081707;28;20032;-73
2023/07/02 09:01:08;;;;;;;32.80;10.20;;;;;;;23.19;85.87;100525.53;5085549;28;20020;-73
2023/07/02 09:03:33;;;;;;;27.20;10.30;;;;;;;23.25;85.06;100535.31;5076032;28;20027;-74
2023/07/02 09:05:59;;;;;;;27.25;9.60;;;;;;;23.33;84.02;100530.59;5081152;28;20024;-74
2023/07/02 09:08:28;;;;;;;24.83;9.23;;;;;;;23.33;84.07;100524.94;5064692;28;20103;-73
2023/07/02 09:11:06;;;;;;;30.27;9.88;;;;;;;23.48;83.31;100528.81;5095160;28;20025;-74
2023/07/02 09:13:31;;;;;;;22.63;8.77;;;;;;;23.63;82.20;100522.97;5079863;28;20472;-74
2023/07/02 09:15:57;;;;;;;32.33;10.27;;;;;;;23.65;80.07;100525.41;5093999;28;20035;-74
2023/07/02 09:18:24;;;;;;;26.58;9.98;;;;;;;23.69;77.92;100525.47;5080605;28;20028;-74
2023/07/02 09:20:51;;;;;;;28.77;10.18;;;;;;;23.70;77.67;100527.91;5071727;28;20020;-75
2023/07/02 09:23:16;;;;;;;34.13;11.00;;;;;;;23.75;77.05;100530.44;5077588;28;20503;-74
2023/07/02 09:25:42;;;;;;;28.85;10.52;;;;;;;23.86;73.52;100524.94;5069420;28;20024;-73
2023/07/02 09:28:18;;;;;;;27.13;9.75;;;;;;;24.03;74.04;100520.69;5111463;28;20020;-74
2023/07/02 09:30:54;;;;;;;29.90;9.75;;;;;;;24.04;71.18;100528.00;5047641;28;20016;-74
2023/07/02 09:33:20;;;;;;;26.02;9.30;;;;;;;24.05;70.06;100529.66;5063691;28;20492;-74
2023/07/02 09:35:45;;;;;;;27.08;9.70;;;;;;;24.02;70.22;100536.91;5080714;28;20036;-75
2023/07/02 09:38:12;;;;;;;24.95;10.35;;;;;;;23.98;70.21;100540.88;5077518;28;20047;-74
2023/07/02 09:40:51;;;;;;;28.30;9.93;;;;;;;23.97;71.26;100540.06;5080579;28;20027;-75
2023/07/02 09:43:16;;;;;;;24.08;9.38;;;;;;;23.97;71.79;100540.06;5094010;28;20030;-76
2023/07/02 09:45:46;;;;;;;27.63;10.52;;;;;;;23.97;71.91;100536.44;5080556;28;20404;-75
2023/07/02 09:48:16;;;;;;;23.75;9.38;;;;;;;23.92;70.01;100536.75;5063350;28;20032;-74
2023/07/02 09:50:48;;;;;;;27.45;9.70;;;;;;;23.89;68.22;100517.69;5074917;28;20388;-75
2023/07/02 09:53:14;;;;;;;27.65;9.32;;;;;;;23.96;68.95;100534.78;5056890;28;20044;-75
2023/07/02 09:55:41;;;;;;;22.63;9.18;;;;;;;23.97;68.37;100536.44;5043883;28;20025;-74
2023/07/02 09:58:06;;;;;;;25.67;9.90;;;;;;;23.91;67.48;100533.09;5056452;28;20108;-75
2023/07/02 10:00:32;;;;;;;25.17;9.55;;;;;;;23.82;67.00;100533.41;5073478;28;20040;-75
2023/07/02 10:02:57;;;;;;;23.83;9.65;;;;;;;23.81;66.79;100536.59;5061021;28;20078;-74
2023/07/02 10:05:30;;;;;;;25.63;9.57;;;;;;;23.89;66.74;100529.03;5046275;28;20029;-74
2023/07/02 10:07:59;;;;;;;21.23;9.30;;;;;;;23.92;66.02;100529.06;5040375;28;20044;-74
2023/07/02 10:10:29;;;;;;;27.40;9.77;;;;;;;23.93;65.81;100533.56;5073174;28;20085;-75
2023/07/02 10:12:54;;;;;;;26.60;9.10;;;;;;;23.92;65.27;100536.75;5074412;28;20389;-74
2023/07/02 10:15:27;;;;;;;29.52;10.48;;;;;;;23.90;65.87;100531.47;5073205;28;20032;-75
2023/07/02 10:18:02;;;;;;;23.20;8.75;;;;;;;23.80;64.86;100527.28;5074098;28;20029;-75
2023/07/02 10:20:46;;;;;;;24.42;8.85;;;;;;;23.67;64.37;100539.22;5074126;28;20020;-73
2023/07/02 10:23:11;;;;;;;23.25;8.52;;;;;;;23.63;64.87;100527.81;5023316;28;20040;-72
2023/07/02 10:25:38;;;;;;;22.50;7.88;;;;;;;23.68;65.60;100524.66;5039601;28;20028;-72
2023/07/02 10:28:21;;;;;;;19.05;7.22;;;;;;;23.74;66.02;100528.81;5039526;28;20075;-73
2023/07/02 10:30:46;;;;;;;25.63;7.43;;;;;;;23.76;66.83;100528.44;5056554;28;20083;-72
2023/07/02 10:33:15;;;;;;;25.30;8.90;;;;;;;23.90;66.99;100522.94;5022257;28;20033;-73
2023/07/02 10:35:42;;;;;;;18.98;7.70;;;;;;;24.07;66.80;100530.06;5034375;28;20468;-72
2023/07/02 10:38:07;;;;;;;23.00;7.15;;;;;;;24.26;66.59;100537.59;5048809;28;20082;-73
2023/07/02 10:40:33;;;;;;;24.70;7.53;;;;;;;24.46;65.54;100535.41;5079460;28;20029;-73
2023/07/02 10:42:58;;;;;;;21.17;7.05;;;;;;;24.60;64.55;100529.94;5038908;28;20024;-73
2023/07/02 10:45:33;;;;;;;23.65;7.70;;;;;;;24.77;63.83;100541.84;5023146;28;20048;-73
2023/07/02 10:47:59;;;;;;;21.73;7.90;;;;;;;24.91;63.18;100533.47;5055487;28;20095;-73
2023/07/02 10:50:25;;;;;;;20.48;6.97;;;;;;;24.92;62.93;100535.09;5019087;28;20076;-73
2023/07/02 10:52:51;;;;;;;21.25;7.22;;;;;;;24.97;62.37;100537.59;5033616;28;20488;-73
2023/07/02 10:55:20;;;;;;;20.50;6.32;;;;;;;25.08;61.69;100541.34;5019069;28;20056;-73
2023/07/02 10:57:45;;;;;;;19.63;6.93;;;;;;;25.16;61.81;100531.69;5068274;28;20028;-72
2023/07/02 11:00:11;;;;;;;19.30;6.57;;;;;;;25.26;61.60;100521.63;5033676;28;20049;-73